sensor_id;sensor_type;location;lat;lon;timestamp;temperature;humidity
4922;DHT22;16625;53.624;10.106;2022-10-16T00:00:21;13.00;99.90
4922;DHT22;16625;53.624;10.106;2022-10-16T00:02:48;13.00;99.90
4922;DHT22;16625;53.624;10.106;2022-10-16T00:05:15;13.00;99.90
4922;DHT22;16625;53.624;10.106;2022-10-16T00:07:42;13.00;99.90
4922;DHT22;16625;53.624;10.106;2022-10-16T00:10:08;13.80;99.90
4922;DHT22;16625;53.624;10.106;2022-10-16T00:12:35;13.10;99.90
4922;DHT22;16625;53.624;10.106;2022-10-16T00:15:05;13.10;99.90
4922;DHT22;16625;53.624;10.106;2022-10-16T00:17:32;13.10;99.90
4922;DHT22;16625;53.624;10.106;2022-10-16T00:19:59;13.10;99.90
4922;DHT22;16625;53.624;10.106;2022-10-16T00:22:25;13.10;99.90
4922;DHT22;16625;53.624;10.106;2022-10-16T00:24:52;13.00;99.90
4922;DHT22;16625;53.624;10.106;2022-10-16T00:27:19;13.10;99.90
4922;DHT22;16625;53.624;10.106;2022-10-16T00:29:49;13.00;99.90
4922;DHT22;16625;53.624;10.106;2022-10-16T00:32:17;13.00;99.90
4922;DHT22;16625;53.624;10.106;2022-10-16T00:34:44;13.00;99.90
4922;DHT22;16625;53.624;10.106;2022-10-16T00:37:12;12.90;99.90
4922;DHT22;16625;53.624;10.106;2022-10-16T00:39:39;12.90;99.90
4922;DHT22;16625;53.624;10.106;2022-10-16T00:42:05;12.90;99.90
4922;DHT22;16625;53.624;10.106;2022-10-16T00:44:44;12.90;99.90
4922;DHT22;16625;53.624;10.106;2022-10-16T00:47:15;12.90;99.90
4922;DHT22;16625;53.624;10.106;2022-10-16T00:49:46;12.90;99.90
4922;DHT22;16625;53.624;10.106;2022-10-16T00:52:14;13.00;99.90
4922;DHT22;16625;53.624;10.106;2022-10-16T00:54:41;13.00;99.90
4922;DHT22;16625;53.624;10.106;2022-10-16T00:57:08;13.00;99.90
4922;DHT22;16625;53.624;10.106;2022-10-16T00:59:37;13.00;99.90
4922;DHT22;16625;53.624;10.106;2022-10-16T01:02:09;13.20;99.90
4922;DHT22;16625;53.624;10.106;2022-10-16T01:04:39;13.10;99.90
4922;DHT22;16625;53.624;10.106;2022-10-16T01:07:12;13.10;99.90
4922;DHT22;16625;53.624;10.106;2022-10-16T01:09:52;13.40;99.90
4922;DHT22;16625;53.624;10.106;2022-10-16T01:12:31;13.10;99.90
4922;DHT22;16625;53.624;10.106;2022-10-16T01:15:03;13.00;99.90
4922;DHT22;16625;53.624;10.106;2022-10-16T01:17:45;13.10;99.90
4922;DHT22;16625;53.624;10.106;2022-10-16T01:20:20;13.10;99.90
4922;DHT22;16625;53.624;10.106;2022-10-16T01:23:01;13.10;99.90
4922;DHT22;16625;53.624;10.106;2022-10-16T01:25:43;13.00;99.90
4922;DHT22;16625;53.624;10.106;2022-10-16T01:28:19;12.90;99.90
4922;DHT22;16625;53.624;10.106;2022-10-16T01:30:50;12.90;99.90
4922;DHT22;16625;53.624;10.106;2022-10-16T01:33:20;13.40;99.90
4922;DHT22;16625;53.624;10.106;2022-10-16T01:35:51;12.70;99.90
4922;DHT22;16625;53.624;10.106;2022-10-16T01:38:21;12.70;99.90
4922;DHT22;16625;53.624;10.106;2022-10-16T01:40:55;12.70;99.90
4922;DHT22;16625;53.624;10.106;2022-10-16T01:43:30;12.60;99.90
4922;DHT22;16625;53.624;10.106;2022-10-16T01:45:59;12.50;99.90
4922;DHT22;16625;53.624;10.106;2022-10-16T01:48:27;12.40;99.90
4922;DHT22;16625;53.624;10.106;2022-10-16T01:51:01;12.40;99.90
4922;DHT22;16625;53.624;10.106;2022-10-16T01:53:30;12.40;99.90
4922;DHT22;16625;53.624;10.106;2022-10-16T01:55:58;12.40;99.90
4922;DHT22;16625;53.624;10.106;2022-10-16T01:58:29;12.30;99.90
4922;DHT22;16625;53.624;10.106;2022-10-16T02:01:00;12.20;99.90
4922;DHT22;16625;53.624;10.106;2022-10-16T02:03:28;12.30;99.90
4922;DHT22;16625;53.624;10.106;2022-10-16T02:05:56;12.20;99.90
4922;DHT22;16625;53.624;10.106;2022-10-16T02:08:27;12.20;99.90
4922;DHT22;16625;53.624;10.106;2022-10-16T02:10:54;12.20;99.90
4922;DHT22;16625;53.624;10.106;2022-10-16T02:13:24;12.20;99.90
4922;DHT22;16625;53.624;10.106;2022-10-16T02:15:53;12.20;99.90
4922;DHT22;16625;53.624;10.106;2022-10-16T02:18:21;12.20;99.90
4922;DHT22;16625;53.624;10.106;2022-10-16T02:20:51;12.30;99.90
4922;DHT22;16625;53.624;10.106;2022-10-16T02:23:28;12.30;99.90
4922;DHT22;16625;53.624;10.106;2022-10-16T02:25:59;12.20;99.90
4922;DHT22;16625;53.624;10.106;2022-10-16T02:28:31;12.20;99.90
4922;DHT22;16625;53.624;10.106;2022-10-16T02:31:04;12.20;99.90
4922;DHT22;16625;53.624;10.106;2022-10-16T02:33:32;12.20;99.90
4922;DHT22;16625;53.624;10.106;2022-10-16T02:36:01;12.10;99.90
4922;DHT22;16625;53.624;10.106;2022-10-16T02:38:29;12.10;99.90
4922;DHT22;16625;53.624;10.106;2022-10-16T02:40:56;12.10;99.90
4922;DHT22;16625;53.624;10.106;2022-10-16T02:43:24;12.10;99.90
4922;DHT22;16625;53.624;10.106;2022-10-16T02:45:51;12.00;99.90
4922;DHT22;16625;53.624;10.106;2022-10-16T02:48:19;11.90;99.90
4922;DHT22;16625;53.624;10.106;2022-10-16T02:50:46;12.00;99.90
4922;DHT22;16625;53.624;10.106;2022-10-16T02:53:13;12.00;99.90
4922;DHT22;16625;53.624;10.106;2022-10-16T02:55:39;12.00;99.90
4922;DHT22;16625;53.624;10.106;2022-10-16T02:58:06;11.90;99.90
4922;DHT22;16625;53.624;10.106;2022-10-16T03:00:33;11.80;99.90
4922;DHT22;16625;53.624;10.106;2022-10-16T03:02:59;11.80;99.90
4922;DHT22;16625;53.624;10.106;2022-10-16T03:05:28;11.70;99.90
4922;DHT22;16625;53.624;10.106;2022-10-16T03:07:54;11.60;99.90
4922;DHT22;16625;53.624;10.106;2022-10-16T03:10:21;11.60;99.90
4922;DHT22;16625;53.624;10.106;2022-10-16T03:12:48;11.60;99.90
4922;DHT22;16625;53.624;10.106;2022-10-16T03:15:15;11.50;99.90
4922;DHT22;16625;53.624;10.106;2022-10-16T03:17:41;11.40;99.90
4922;DHT22;16625;53.624;10.106;2022-10-16T03:20:09;11.30;99.90
4922;DHT22;16625;53.624;10.106;2022-10-16T03:22:37;11.20;99.90
4922;DHT22;16625;53.624;10.106;2022-10-16T03:25:05;11.20;99.90
4922;DHT22;16625;53.624;10.106;2022-10-16T03:27:31;11.10;99.90
4922;DHT22;16625;53.624;10.106;2022-10-16T03:29:58;11.00;99.90
4922;DHT22;16625;53.624;10.106;2022-10-16T03:32:25;11.30;99.90
4922;DHT22;16625;53.624;10.106;2022-10-16T03:34:53;10.70;99.90
4922;DHT22;16625;53.624;10.106;2022-10-16T03:37:21;10.80;99.90
4922;DHT22;16625;53.624;10.106;2022-10-16T03:39:49;10.80;99.90
4922;DHT22;16625;53.624;10.106;2022-10-16T03:42:16;10.70;99.90
4922;DHT22;16625;53.624;10.106;2022-10-16T03:44:43;10.70;99.90
4922;DHT22;16625;53.624;10.106;2022-10-16T03:47:10;10.80;99.90
4922;DHT22;16625;53.624;10.106;2022-10-16T03:49:37;10.80;99.90
4922;DHT22;16625;53.624;10.106;2022-10-16T03:52:03;11.00;99.90
4922;DHT22;16625;53.624;10.106;2022-10-16T03:54:30;10.80;99.90
4922;DHT22;16625;53.624;10.106;2022-10-16T03:57:00;10.80;99.90
4922;DHT22;16625;53.624;10.106;2022-10-16T03:59:26;10.80;99.90
4922;DHT22;16625;53.624;10.106;2022-10-16T04:01:53;10.80;99.90
4922;DHT22;16625;53.624;10.106;2022-10-16T04:04:20;10.90;99.90
4922;DHT22;16625;53.624;10.106;2022-10-16T04:06:47;10.90;99.90
4922;DHT22;16625;53.624;10.106;2022-10-16T04:09:13;10.90;99.90
4922;DHT22;16625;53.624;10.106;2022-10-16T04:11:40;10.90;99.90
4922;DHT22;16625;53.624;10.106;2022-10-16T04:14:08;10.90;99.90
4922;DHT22;16625;53.624;10.106;2022-10-16T04:16:35;10.80;99.90
4922;DHT22;16625;53.624;10.106;2022-10-16T04:19:02;10.80;99.90
4922;DHT22;16625;53.624;10.106;2022-10-16T04:21:28;10.80;99.90
4922;DHT22;16625;53.624;10.106;2022-10-16T04:23:55;10.80;99.90
4922;DHT22;16625;53.624;10.106;2022-10-16T04:26:22;10.80;99.90
4922;DHT22;16625;53.624;10.106;2022-10-16T04:28:49;10.70;99.90
4922;DHT22;16625;53.624;10.106;2022-10-16T04:31:17;10.70;99.90
4922;DHT22;16625;53.624;10.106;2022-10-16T04:33:44;10.70;99.90
4922;DHT22;16625;53.624;10.106;2022-10-16T04:36:10;10.70;99.90
4922;DHT22;16625;53.624;10.106;2022-10-16T04:38:37;10.60;99.90
4922;DHT22;16625;53.624;10.106;2022-10-16T04:41:05;10.60;99.90
4922;DHT22;16625;53.624;10.106;2022-10-16T04:43:32;10.60;99.90
4922;DHT22;16625;53.624;10.106;2022-10-16T04:46:02;10.60;99.90
4922;DHT22;16625;53.624;10.106;2022-10-16T04:48:31;10.60;99.90
4922;DHT22;16625;53.624;10.106;2022-10-16T04:50:59;10.60;99.90
4922;DHT22;16625;53.624;10.106;2022-10-16T04:53:25;10.60;99.90
4922;DHT22;16625;53.624;10.106;2022-10-16T04:55:52;11.30;99.90
4922;DHT22;16625;53.624;10.106;2022-10-16T04:58:19;10.60;99.90
4922;DHT22;16625;53.624;10.106;2022-10-16T05:00:46;10.50;99.90
4922;DHT22;16625;53.624;10.106;2022-10-16T05:03:13;10.50;99.90
4922;DHT22;16625;53.624;10.106;2022-10-16T05:05:44;10.50;99.90
4922;DHT22;16625;53.624;10.106;2022-10-16T05:08:12;10.50;99.90
4922;DHT22;16625;53.624;10.106;2022-10-16T05:10:41;10.40;99.90
4922;DHT22;16625;53.624;10.106;2022-10-16T05:13:08;10.40;99.90
4922;DHT22;16625;53.624;10.106;2022-10-16T05:15:35;10.50;99.90
4922;DHT22;16625;53.624;10.106;2022-10-16T05:18:02;10.40;99.90
4922;DHT22;16625;53.624;10.106;2022-10-16T05:20:29;10.40;99.90
4922;DHT22;16625;53.624;10.106;2022-10-16T05:22:57;10.40;99.90
4922;DHT22;16625;53.624;10.106;2022-10-16T05:25:24;10.30;99.90
4922;DHT22;16625;53.624;10.106;2022-10-16T05:27:51;10.30;99.90
4922;DHT22;16625;53.624;10.106;2022-10-16T05:30:18;10.30;99.90
4922;DHT22;16625;53.624;10.106;2022-10-16T05:32:46;10.40;99.90
4922;DHT22;16625;53.624;10.106;2022-10-16T05:35:13;10.30;99.90
4922;DHT22;16625;53.624;10.106;2022-10-16T05:37:41;10.30;99.90
4922;DHT22;16625;53.624;10.106;2022-10-16T05:40:10;10.40;99.90
4922;DHT22;16625;53.624;10.106;2022-10-16T05:42:38;10.30;99.90
4922;DHT22;16625;53.624;10.106;2022-10-16T05:45:06;10.30;99.90
4922;DHT22;16625;53.624;10.106;2022-10-16T05:47:33;10.30;99.90
4922;DHT22;16625;53.624;10.106;2022-10-16T05:50:00;10.30;99.90
4922;DHT22;16625;53.624;10.106;2022-10-16T05:52:27;10.30;99.90
4922;DHT22;16625;53.624;10.106;2022-10-16T05:54:54;10.70;99.90
4922;DHT22;16625;53.624;10.106;2022-10-16T05:57:22;10.40;99.90
4922;DHT22;16625;53.624;10.106;2022-10-16T05:59:49;10.50;99.90
4922;DHT22;16625;53.624;10.106;2022-10-16T06:02:16;10.50;99.90
4922;DHT22;16625;53.624;10.106;2022-10-16T06:04:42;10.50;99.90
4922;DHT22;16625;53.624;10.106;2022-10-16T06:07:09;10.60;99.90
4922;DHT22;16625;53.624;10.106;2022-10-16T06:09:36;10.60;99.90
4922;DHT22;16625;53.624;10.106;2022-10-16T06:12:03;11.00;99.90
4922;DHT22;16625;53.624;10.106;2022-10-16T06:14:31;10.70;99.90
4922;DHT22;16625;53.624;10.106;2022-10-16T06:16:58;10.80;99.90
4922;DHT22;16625;53.624;10.106;2022-10-16T06:19:25;10.80;99.90
4922;DHT22;16625;53.624;10.106;2022-10-16T06:21:52;10.90;99.90
4922;DHT22;16625;53.624;10.106;2022-10-16T06:24:19;11.10;99.90
4922;DHT22;16625;53.624;10.106;2022-10-16T06:26:46;10.90;99.90
4922;DHT22;16625;53.624;10.106;2022-10-16T06:29:13;11.60;99.90
4922;DHT22;16625;53.624;10.106;2022-10-16T06:31:41;11.00;99.90
4922;DHT22;16625;53.624;10.106;2022-10-16T06:34:09;11.00;99.90
4922;DHT22;16625;53.624;10.106;2022-10-16T06:36:37;11.00;99.90
4922;DHT22;16625;53.624;10.106;2022-10-16T06:39:05;11.00;99.90
4922;DHT22;16625;53.624;10.106;2022-10-16T06:41:33;11.00;99.90
4922;DHT22;16625;53.624;10.106;2022-10-16T06:44:00;11.00;99.90
4922;DHT22;16625;53.624;10.106;2022-10-16T06:46:27;11.10;99.90
4922;DHT22;16625;53.624;10.106;2022-10-16T06:48:55;11.40;99.90
4922;DHT22;16625;53.624;10.106;2022-10-16T06:51:23;11.20;99.90
4922;DHT22;16625;53.624;10.106;2022-10-16T06:53:51;11.20;99.90
4922;DHT22;16625;53.624;10.106;2022-10-16T06:56:20;11.30;99.90
4922;DHT22;16625;53.624;10.106;2022-10-16T06:58:48;11.40;99.90
4922;DHT22;16625;53.624;10.106;2022-10-16T07:01:16;11.60;99.90
4922;DHT22;16625;53.624;10.106;2022-10-16T07:03:44;11.70;99.90
4922;DHT22;16625;53.624;10.106;2022-10-16T07:06:14;11.80;99.90
4922;DHT22;16625;53.624;10.106;2022-10-16T07:08:42;11.90;99.90
4922;DHT22;16625;53.624;10.106;2022-10-16T07:11:11;12.10;99.90
4922;DHT22;16625;53.624;10.106;2022-10-16T07:13:40;12.50;99.90
4922;DHT22;16625;53.624;10.106;2022-10-16T07:16:08;12.50;99.90
4922;DHT22;16625;53.624;10.106;2022-10-16T07:18:35;12.70;99.90
4922;DHT22;16625;53.624;10.106;2022-10-16T07:21:06;12.90;99.90
4922;DHT22;16625;53.624;10.106;2022-10-16T07:23:35;13.10;99.90
4922;DHT22;16625;53.624;10.106;2022-10-16T07:26:02;13.30;99.90
4922;DHT22;16625;53.624;10.106;2022-10-16T07:28:30;13.50;99.90
4922;DHT22;16625;53.624;10.106;2022-10-16T07:31:01;13.60;99.90
4922;DHT22;16625;53.624;10.106;2022-10-16T07:33:28;13.60;99.90
4922;DHT22;16625;53.624;10.106;2022-10-16T07:35:55;13.60;99.90
4922;DHT22;16625;53.624;10.106;2022-10-16T07:38:22;13.60;99.90
4922;DHT22;16625;53.624;10.106;2022-10-16T07:40:57;13.60;99.90
4922;DHT22;16625;53.624;10.106;2022-10-16T07:43:25;13.70;99.90
4922;DHT22;16625;53.624;10.106;2022-10-16T07:45:52;13.80;99.90
4922;DHT22;16625;53.624;10.106;2022-10-16T07:48:21;13.80;99.90
4922;DHT22;16625;53.624;10.106;2022-10-16T07:50:48;13.80;99.90
4922;DHT22;16625;53.624;10.106;2022-10-16T07:53:15;13.90;99.90
4922;DHT22;16625;53.624;10.106;2022-10-16T07:55:42;14.00;99.90
4922;DHT22;16625;53.624;10.106;2022-10-16T07:58:12;14.20;99.90
4922;DHT22;16625;53.624;10.106;2022-10-16T08:00:39;14.30;99.90
4922;DHT22;16625;53.624;10.106;2022-10-16T08:03:06;14.40;99.90
4922;DHT22;16625;53.624;10.106;2022-10-16T08:05:34;14.40;99.90
4922;DHT22;16625;53.624;10.106;2022-10-16T08:08:02;14.60;99.90
4922;DHT22;16625;53.624;10.106;2022-10-16T08:10:29;14.30;99.90
4922;DHT22;16625;53.624;10.106;2022-10-16T08:12:57;14.30;99.90
4922;DHT22;16625;53.624;10.106;2022-10-16T08:15:26;14.30;99.90
4922;DHT22;16625;53.624;10.106;2022-10-16T08:17:57;14.20;99.90
4922;DHT22;16625;53.624;10.106;2022-10-16T08:20:25;14.20;99.90
4922;DHT22;16625;53.624;10.106;2022-10-16T08:22:52;14.20;99.90
4922;DHT22;16625;53.624;10.106;2022-10-16T08:25:21;14.20;99.90
4922;DHT22;16625;53.624;10.106;2022-10-16T08:27:49;14.70;99.90
4922;DHT22;16625;53.624;10.106;2022-10-16T08:30:18;14.30;99.90
4922;DHT22;16625;53.624;10.106;2022-10-16T08:32:47;14.40;99.90
4922;DHT22;16625;53.624;10.106;2022-10-16T08:35:15;14.50;99.90
4922;DHT22;16625;53.624;10.106;2022-10-16T08:37:43;14.60;99.90
4922;DHT22;16625;53.624;10.106;2022-10-16T08:40:17;14.80;99.90
4922;DHT22;16625;53.624;10.106;2022-10-16T08:48:45;15.40;99.90
4922;DHT22;16625;53.624;10.106;2022-10-16T08:51:18;15.60;99.90
4922;DHT22;16625;53.624;10.106;2022-10-16T08:53:49;15.50;99.90
4922;DHT22;16625;53.624;10.106;2022-10-16T08:56:18;15.30;99.90
4922;DHT22;16625;53.624;10.106;2022-10-16T08:58:46;15.70;99.90
4922;DHT22;16625;53.624;10.106;2022-10-16T09:01:15;15.90;99.90
4922;DHT22;16625;53.624;10.106;2022-10-16T09:04:01;15.80;99.90
4922;DHT22;16625;53.624;10.106;2022-10-16T09:06:49;15.90;99.90
4922;DHT22;16625;53.624;10.106;2022-10-16T09:09:35;15.90;97.00
4922;DHT22;16625;53.624;10.106;2022-10-16T09:12:12;16.00;99.90
4922;DHT22;16625;53.624;10.106;2022-10-16T09:14:52;16.00;99.90
4922;DHT22;16625;53.624;10.106;2022-10-16T09:17:39;16.00;32.60
4922;DHT22;16625;53.624;10.106;2022-10-16T09:20:32;16.20;1.00
4922;DHT22;16625;53.624;10.106;2022-10-16T09:23:12;16.20;16.90
4922;DHT22;16625;53.624;10.106;2022-10-16T09:25:43;16.40;43.60
4922;DHT22;16625;53.624;10.106;2022-10-16T09:28:11;16.90;1.00
4922;DHT22;16625;53.624;10.106;2022-10-16T09:30:39;16.60;1.00
4922;DHT22;16625;53.624;10.106;2022-10-16T09:33:09;16.60;1.00
4922;DHT22;16625;53.624;10.106;2022-10-16T09:35:39;16.60;1.00
4922;DHT22;16625;53.624;10.106;2022-10-16T09:38:07;16.60;1.00
4922;DHT22;16625;53.624;10.106;2022-10-16T09:40:37;16.50;99.90
4922;DHT22;16625;53.624;10.106;2022-10-16T09:43:19;16.70;99.90
4922;DHT22;16625;53.624;10.106;2022-10-16T09:45:54;17.00;99.90
4922;DHT22;16625;53.624;10.106;2022-10-16T09:48:22;16.50;99.90
4922;DHT22;16625;53.624;10.106;2022-10-16T09:50:57;16.50;99.90
4922;DHT22;16625;53.624;10.106;2022-10-16T09:53:37;16.50;99.90
4922;DHT22;16625;53.624;10.106;2022-10-16T09:56:10;16.70;1.00
4922;DHT22;16625;53.624;10.106;2022-10-16T09:58:42;16.70;99.90
4922;DHT22;16625;53.624;10.106;2022-10-16T10:01:13;16.80;42.70
4922;DHT22;16625;53.624;10.106;2022-10-16T10:03:44;17.10;1.00
4922;DHT22;16625;53.624;10.106;2022-10-16T10:06:24;16.80;1.00
4922;DHT22;16625;53.624;10.106;2022-10-16T10:09:02;16.90;99.90
4922;DHT22;16625;53.624;10.106;2022-10-16T10:11:44;17.00;1.00
4922;DHT22;16625;53.624;10.106;2022-10-16T10:14:23;17.10;99.90
4922;DHT22;16625;53.624;10.106;2022-10-16T10:16:52;17.10;1.00
4922;DHT22;16625;53.624;10.106;2022-10-16T10:19:21;17.10;1.00
4922;DHT22;16625;53.624;10.106;2022-10-16T10:21:51;17.10;99.90
4922;DHT22;16625;53.624;10.106;2022-10-16T10:24:19;17.10;1.00
4922;DHT22;16625;53.624;10.106;2022-10-16T10:26:54;17.30;19.30
4922;DHT22;16625;53.624;10.106;2022-10-16T10:29:31;17.30;8.80
4922;DHT22;16625;53.624;10.106;2022-10-16T10:32:09;17.20;1.00
4922;DHT22;16625;53.624;10.106;2022-10-16T10:34:49;17.20;1.00
4922;DHT22;16625;53.624;10.106;2022-10-16T10:37:35;17.30;1.00
4922;DHT22;16625;53.624;10.106;2022-10-16T10:40:11;17.30;99.90
4922;DHT22;16625;53.624;10.106;2022-10-16T10:42:47;17.30;1.00
4922;DHT22;16625;53.624;10.106;2022-10-16T10:45:22;17.40;99.90
4922;DHT22;16625;53.624;10.106;2022-10-16T10:50:45;17.60;99.90
4922;DHT22;16625;53.624;10.106;2022-10-16T10:53:29;17.80;99.90
4922;DHT22;16625;53.624;10.106;2022-10-16T10:56:05;17.80;99.90
4922;DHT22;16625;53.624;10.106;2022-10-16T10:59:02;17.80;99.90
4922;DHT22;16625;53.624;10.106;2022-10-16T11:01:38;18.00;99.90
4922;DHT22;16625;53.624;10.106;2022-10-16T11:04:33;18.20;1.00
4922;DHT22;16625;53.624;10.106;2022-10-16T11:07:04;18.20;99.90
4922;DHT22;16625;53.624;10.106;2022-10-16T11:09:36;18.10;99.90
4922;DHT22;16625;53.624;10.106;2022-10-16T11:12:07;18.00;7.20
4922;DHT22;16625;53.624;10.106;2022-10-16T11:14:38;18.00;37.10
4922;DHT22;16625;53.624;10.106;2022-10-16T11:17:11;18.00;1.00
4922;DHT22;16625;53.624;10.106;2022-10-16T11:19:44;18.00;1.00
4922;DHT22;16625;53.624;10.106;2022-10-16T11:22:23;18.00;99.90
4922;DHT22;16625;53.624;10.106;2022-10-16T11:24:59;18.00;99.90
4922;DHT22;16625;53.624;10.106;2022-10-16T11:27:36;18.00;99.90
4922;DHT22;16625;53.624;10.106;2022-10-16T11:30:11;18.10;99.90
4922;DHT22;16625;53.624;10.106;2022-10-16T11:32:50;18.20;99.90
4922;DHT22;16625;53.624;10.106;2022-10-16T11:35:21;18.30;99.90
4922;DHT22;16625;53.624;10.106;2022-10-16T11:37:50;18.20;59.30
4922;DHT22;16625;53.624;10.106;2022-10-16T11:40:24;18.30;1.00
4922;DHT22;16625;53.624;10.106;2022-10-16T11:42:55;18.50;1.00
4922;DHT22;16625;53.624;10.106;2022-10-16T11:45:30;18.80;1.00
4922;DHT22;16625;53.624;10.106;2022-10-16T11:48:04;18.90;1.00
4922;DHT22;16625;53.624;10.106;2022-10-16T11:50:37;18.70;1.00
4922;DHT22;16625;53.624;10.106;2022-10-16T11:53:14;18.40;1.00
4922;DHT22;16625;53.624;10.106;2022-10-16T11:55:45;18.20;1.00
4922;DHT22;16625;53.624;10.106;2022-10-16T11:58:19;17.90;1.00
4922;DHT22;16625;53.624;10.106;2022-10-16T12:00:55;17.80;1.00
4922;DHT22;16625;53.624;10.106;2022-10-16T12:03:28;17.70;20.50
4922;DHT22;16625;53.624;10.106;2022-10-16T12:06:15;17.50;72.30
4922;DHT22;16625;53.624;10.106;2022-10-16T12:08:46;17.40;99.90
4922;DHT22;16625;53.624;10.106;2022-10-16T12:11:24;17.30;74.60
4922;DHT22;16625;53.624;10.106;2022-10-16T12:14:17;17.20;75.80
4922;DHT22;16625;53.624;10.106;2022-10-16T12:16:51;17.10;1.00
4922;DHT22;16625;53.624;10.106;2022-10-16T12:19:20;17.30;1.00
4922;DHT22;16625;53.624;10.106;2022-10-16T12:21:48;17.40;1.00
4922;DHT22;16625;53.624;10.106;2022-10-16T12:24:31;17.40;1.00
4922;DHT22;16625;53.624;10.106;2022-10-16T12:27:00;17.30;1.00
4922;DHT22;16625;53.624;10.106;2022-10-16T12:29:33;17.40;1.00
4922;DHT22;16625;53.624;10.106;2022-10-16T12:32:02;17.70;1.00
4922;DHT22;16625;53.624;10.106;2022-10-16T12:34:38;17.70;1.00
4922;DHT22;16625;53.624;10.106;2022-10-16T12:37:18;17.90;1.00
4922;DHT22;16625;53.624;10.106;2022-10-16T12:39:47;18.00;1.00
4922;DHT22;16625;53.624;10.106;2022-10-16T12:42:23;18.10;99.90
4922;DHT22;16625;53.624;10.106;2022-10-16T12:44:57;18.20;99.90
4922;DHT22;16625;53.624;10.106;2022-10-16T12:47:37;18.10;99.90
4922;DHT22;16625;53.624;10.106;2022-10-16T12:50:27;18.00;99.90
4922;DHT22;16625;53.624;10.106;2022-10-16T12:52:56;17.80;99.90
4922;DHT22;16625;53.624;10.106;2022-10-16T12:55:24;18.00;99.90
4922;DHT22;16625;53.624;10.106;2022-10-16T12:58:06;17.90;99.90
4922;DHT22;16625;53.624;10.106;2022-10-16T13:00:41;17.90;99.90
4922;DHT22;16625;53.624;10.106;2022-10-16T13:03:37;18.20;99.90
4922;DHT22;16625;53.624;10.106;2022-10-16T13:06:20;18.30;99.90
4922;DHT22;16625;53.624;10.106;2022-10-16T13:09:05;18.10;99.90
4922;DHT22;16625;53.624;10.106;2022-10-16T13:11:49;18.10;99.90
4922;DHT22;16625;53.624;10.106;2022-10-16T13:14:45;17.90;99.90
4922;DHT22;16625;53.624;10.106;2022-10-16T13:17:21;17.60;99.90
4922;DHT22;16625;53.624;10.106;2022-10-16T13:19:55;17.40;99.90
4922;DHT22;16625;53.624;10.106;2022-10-16T13:22:28;17.50;99.90
4922;DHT22;16625;53.624;10.106;2022-10-16T13:25:14;17.60;99.90
4922;DHT22;16625;53.624;10.106;2022-10-16T13:27:45;17.60;99.90
4922;DHT22;16625;53.624;10.106;2022-10-16T13:30:18;17.70;99.90
4922;DHT22;16625;53.624;10.106;2022-10-16T13:32:48;18.00;99.90
4922;DHT22;16625;53.624;10.106;2022-10-16T13:35:21;18.20;99.90
4922;DHT22;16625;53.624;10.106;2022-10-16T13:37:48;18.20;57.50
4922;DHT22;16625;53.624;10.106;2022-10-16T13:40:20;18.10;1.00
4922;DHT22;16625;53.624;10.106;2022-10-16T13:42:47;18.10;1.00
4922;DHT22;16625;53.624;10.106;2022-10-16T13:45:19;18.10;79.30
4922;DHT22;16625;53.624;10.106;2022-10-16T13:47:47;17.90;42.20
4922;DHT22;16625;53.624;10.106;2022-10-16T13:50:16;17.70;99.90
4922;DHT22;16625;53.624;10.106;2022-10-16T13:52:45;17.70;99.90
4922;DHT22;16625;53.624;10.106;2022-10-16T13:55:13;17.70;99.90
4922;DHT22;16625;53.624;10.106;2022-10-16T13:57:40;17.70;99.90
4922;DHT22;16625;53.624;10.106;2022-10-16T14:00:24;17.70;99.90
4922;DHT22;16625;53.624;10.106;2022-10-16T14:02:58;17.70;99.90
4922;DHT22;16625;53.624;10.106;2022-10-16T14:05:26;17.50;99.90
4922;DHT22;16625;53.624;10.106;2022-10-16T14:07:57;17.50;99.90
4922;DHT22;16625;53.624;10.106;2022-10-16T14:10:26;17.50;99.90
4922;DHT22;16625;53.624;10.106;2022-10-16T14:13:00;17.60;99.90
4922;DHT22;16625;53.624;10.106;2022-10-16T14:15:30;17.50;99.90
4922;DHT22;16625;53.624;10.106;2022-10-16T14:17:58;17.60;99.90
4922;DHT22;16625;53.624;10.106;2022-10-16T14:20:28;17.50;99.90
4922;DHT22;16625;53.624;10.106;2022-10-16T14:23:00;17.60;99.90
4922;DHT22;16625;53.624;10.106;2022-10-16T14:25:31;17.30;99.90
4922;DHT22;16625;53.624;10.106;2022-10-16T14:28:01;17.20;99.90
4922;DHT22;16625;53.624;10.106;2022-10-16T14:30:32;17.10;99.90
4922;DHT22;16625;53.624;10.106;2022-10-16T14:33:02;17.00;99.90
4922;DHT22;16625;53.624;10.106;2022-10-16T14:35:31;17.00;99.90
4922;DHT22;16625;53.624;10.106;2022-10-16T14:38:00;17.00;99.90
4922;DHT22;16625;53.624;10.106;2022-10-16T14:40:29;17.20;99.90
4922;DHT22;16625;53.624;10.106;2022-10-16T14:42:58;17.20;99.90
4922;DHT22;16625;53.624;10.106;2022-10-16T14:45:28;17.20;87.50
4922;DHT22;16625;53.624;10.106;2022-10-16T14:47:59;17.30;97.80
4922;DHT22;16625;53.624;10.106;2022-10-16T14:50:27;17.30;91.20
4922;DHT22;16625;53.624;10.106;2022-10-16T14:52:54;17.30;77.40
4922;DHT22;16625;53.624;10.106;2022-10-16T14:55:21;17.30;98.60
4922;DHT22;16625;53.624;10.106;2022-10-16T14:57:48;17.20;99.90
4922;DHT22;16625;53.624;10.106;2022-10-16T15:00:18;17.10;99.90
4922;DHT22;16625;53.624;10.106;2022-10-16T15:02:47;16.90;99.90
4922;DHT22;16625;53.624;10.106;2022-10-16T15:05:18;16.80;99.90
4922;DHT22;16625;53.624;10.106;2022-10-16T15:07:46;16.60;99.90
4922;DHT22;16625;53.624;10.106;2022-10-16T15:10:15;16.60;99.90
4922;DHT22;16625;53.624;10.106;2022-10-16T15:12:43;16.60;99.90
4922;DHT22;16625;53.624;10.106;2022-10-16T15:15:33;16.70;99.90
4922;DHT22;16625;53.624;10.106;2022-10-16T15:18:01;16.70;99.90
4922;DHT22;16625;53.624;10.106;2022-10-16T15:20:34;16.70;99.90
4922;DHT22;16625;53.624;10.106;2022-10-16T15:23:03;16.60;99.90
4922;DHT22;16625;53.624;10.106;2022-10-16T15:25:35;16.40;99.90
4922;DHT22;16625;53.624;10.106;2022-10-16T15:28:05;16.40;99.90
4922;DHT22;16625;53.624;10.106;2022-10-16T15:30:33;16.30;99.90
4922;DHT22;16625;53.624;10.106;2022-10-16T15:33:01;16.20;99.90
4922;DHT22;16625;53.624;10.106;2022-10-16T15:35:28;16.10;1.00
4922;DHT22;16625;53.624;10.106;2022-10-16T15:38:00;16.00;1.00
4922;DHT22;16625;53.624;10.106;2022-10-16T15:40:27;16.20;1.00
4922;DHT22;16625;53.624;10.106;2022-10-16T15:42:54;15.80;1.00
4922;DHT22;16625;53.624;10.106;2022-10-16T15:45:21;15.80;1.00
4922;DHT22;16625;53.624;10.106;2022-10-16T15:47:47;15.70;1.00
4922;DHT22;16625;53.624;10.106;2022-10-16T15:50:15;15.50;38.20
4922;DHT22;16625;53.624;10.106;2022-10-16T15:52:42;15.50;99.90
4922;DHT22;16625;53.624;10.106;2022-10-16T15:55:12;15.40;99.90
4922;DHT22;16625;53.624;10.106;2022-10-16T15:57:40;15.20;99.90
4922;DHT22;16625;53.624;10.106;2022-10-16T16:00:11;15.20;99.90
4922;DHT22;16625;53.624;10.106;2022-10-16T16:02:38;15.10;99.90